sensor_id;sensor_type;location;lat;lon;timestamp;P1;durP1;ratioP1;P2;durP2;ratioP2
8636;SDS011;4356;49.068;8.658;2023-02-28T00:00:48;1.80;;;1.80;;
8636;SDS011;4356;49.068;8.658;2023-02-28T00:03:14;2.20;;;2.10;;
8636;SDS011;4356;49.068;8.658;2023-02-28T00:05:40;2.10;;;2.00;;
8636;SDS011;4356;49.068;8.658;2023-02-28T00:08:06;2.10;;;2.00;;
8636;SDS011;4356;49.068;8.658;2023-02-28T00:10:33;2.13;;;2.00;;
8636;SDS011;4356;49.068;8.658;2023-02-28T00:13:00;1.93;;;1.83;;
8636;SDS011;4356;49.068;8.658;2023-02-28T00:15:28;2.00;;;1.90;;
8636;SDS011;4356;49.068;8.658;2023-02-28T00:17:54;1.83;;;1.80;;
8636;SDS011;4356;49.068;8.658;2023-02-28T00:20:19;3.90;;;2.47;;
8636;SDS011;4356;49.068;8.658;2023-02-28T00:22:47;2.00;;;1.90;;
8636;SDS011;4356;49.068;8.658;2023-02-28T00:25:16;1.90;;;1.70;;
8636;SDS011;4356;49.068;8.658;2023-02-28T00:27:45;2.07;;;1.97;;
8636;SDS011;4356;49.068;8.658;2023-02-28T00:30:12;1.93;;;1.83;;
8636;SDS011;4356;49.068;8.658;2023-02-28T00:32:39;2.20;;;1.90;;
8636;SDS011;4356;49.068;8.658;2023-02-28T00:35:05;1.80;;;1.70;;
8636;SDS011;4356;49.068;8.658;2023-02-28T00:37:31;1.80;;;1.70;;
8636;SDS011;4356;49.068;8.658;2023-02-28T00:39:57;2.03;;;1.93;;
8636;SDS011;4356;49.068;8.658;2023-02-28T00:42:23;2.37;;;2.27;;
8636;SDS011;4356;49.068;8.658;2023-02-28T00:44:49;2.00;;;1.90;;
8636;SDS011;4356;49.068;8.658;2023-02-28T00:47:17;2.33;;;2.23;;
8636;SDS011;4356;49.068;8.658;2023-02-28T00:49:43;2.53;;;2.03;;
8636;SDS011;4356;49.068;8.658;2023-02-28T00:52:08;1.90;;;1.80;;
8636;SDS011;4356;49.068;8.658;2023-02-28T00:54:34;2.03;;;1.93;;
8636;SDS011;4356;49.068;8.658;2023-02-28T00:56:59;2.17;;;2.07;;
8636;SDS011;4356;49.068;8.658;2023-02-28T00:59:25;1.90;;;1.80;;
8636;SDS011;4356;49.068;8.658;2023-02-28T01:01:51;1.90;;;1.80;;
8636;SDS011;4356;49.068;8.658;2023-02-28T01:04:16;2.03;;;1.93;;
8636;SDS011;4356;49.068;8.658;2023-02-28T01:06:42;2.17;;;2.07;;
8636;SDS011;4356;49.068;8.658;2023-02-28T01:09:08;2.00;;;1.90;;
8636;SDS011;4356;49.068;8.658;2023-02-28T01:11:36;2.03;;;1.93;;
8636;SDS011;4356;49.068;8.658;2023-02-28T01:14:02;2.40;;;2.07;;
8636;SDS011;4356;49.068;8.658;2023-02-28T01:16:29;1.83;;;1.80;;
8636;SDS011;4356;49.068;8.658;2023-02-28T01:18:54;1.80;;;1.70;;
8636;SDS011;4356;49.068;8.658;2023-02-28T01:21:21;1.93;;;1.83;;
8636;SDS011;4356;49.068;8.658;2023-02-28T01:23:47;2.33;;;2.13;;
8636;SDS011;4356;49.068;8.658;2023-02-28T01:26:14;2.00;;;1.90;;
8636;SDS011;4356;49.068;8.658;2023-02-28T01:28:47;2.10;;;2.00;;
8636;SDS011;4356;49.068;8.658;2023-02-28T01:31:13;2.27;;;2.17;;
8636;SDS011;4356;49.068;8.658;2023-02-28T01:33:39;2.27;;;2.13;;
8636;SDS011;4356;49.068;8.658;2023-02-28T01:36:06;2.40;;;2.30;;
8636;SDS011;4356;49.068;8.658;2023-02-28T01:38:34;2.20;;;2.10;;
8636;SDS011;4356;49.068;8.658;2023-02-28T01:41:00;2.30;;;2.20;;
8636;SDS011;4356;49.068;8.658;2023-02-28T01:43:30;2.70;;;2.50;;
8636;SDS011;4356;49.068;8.658;2023-02-28T01:45:58;2.13;;;2.03;;
8636;SDS011;4356;49.068;8.658;2023-02-28T01:48:25;2.20;;;2.10;;
8636;SDS011;4356;49.068;8.658;2023-02-28T01:50:54;2.37;;;2.17;;
8636;SDS011;4356;49.068;8.658;2023-02-28T01:53:26;2.30;;;2.20;;
8636;SDS011;4356;49.068;8.658;2023-02-28T01:56:00;2.40;;;2.30;;
8636;SDS011;4356;49.068;8.658;2023-02-28T01:58:28;2.50;;;2.30;;
8636;SDS011;4356;49.068;8.658;2023-02-28T02:00:54;2.10;;;2.00;;
8636;SDS011;4356;49.068;8.658;2023-02-28T02:03:20;2.53;;;2.43;;
8636;SDS011;4356;49.068;8.658;2023-02-28T02:05:46;2.40;;;2.20;;
8636;SDS011;4356;49.068;8.658;2023-02-28T02:08:20;2.47;;;2.37;;
8636;SDS011;4356;49.068;8.658;2023-02-28T02:10:49;2.23;;;2.13;;
8636;SDS011;4356;49.068;8.658;2023-02-28T02:18:44;2.37;;;2.27;;
8636;SDS011;4356;49.068;8.658;2023-02-28T02:24:28;2.33;;;2.13;;
8636;SDS011;4356;49.068;8.658;2023-02-28T02:36:29;2.30;;;2.20;;
8636;SDS011;4356;49.068;8.658;2023-02-28T02:39:06;2.37;;;2.20;;
8636;SDS011;4356;49.068;8.658;2023-02-28T02:41:39;2.73;;;2.13;;
8636;SDS011;4356;49.068;8.658;2023-02-28T02:46:58;2.33;;;2.23;;
8636;SDS011;4356;49.068;8.658;2023-02-28T02:49:31;2.37;;;2.23;;
8636;SDS011;4356;49.068;8.658;2023-02-28T02:52:00;2.60;;;2.40;;
8636;SDS011;4356;49.068;8.658;2023-02-28T02:54:30;2.57;;;2.37;;
8636;SDS011;4356;49.068;8.658;2023-02-28T02:57:02;2.47;;;2.37;;
8636;SDS011;4356;49.068;8.658;2023-02-28T02:59:30;2.63;;;2.43;;
8636;SDS011;4356;49.068;8.658;2023-02-28T03:02:01;2.70;;;2.60;;
8636;SDS011;4356;49.068;8.658;2023-02-28T03:04:32;2.67;;;2.47;;
8636;SDS011;4356;49.068;8.658;2023-02-28T03:07:05;2.87;;;2.30;;
8636;SDS011;4356;49.068;8.658;2023-02-28T03:09:32;2.70;;;2.50;;
8636;SDS011;4356;49.068;8.658;2023-02-28T03:11:59;2.80;;;2.60;;
8636;SDS011;4356;49.068;8.658;2023-02-28T03:30:49;2.80;;;2.50;;
8636;SDS011;4356;49.068;8.658;2023-02-28T03:33:20;2.87;;;2.67;;
8636;SDS011;4356;49.068;8.658;2023-02-28T03:35:52;2.77;;;2.63;;
8636;SDS011;4356;49.068;8.658;2023-02-28T03:41:15;2.67;;;2.50;;
8636;SDS011;4356;49.068;8.658;2023-02-28T03:43:48;2.67;;;2.57;;
8636;SDS011;4356;49.068;8.658;2023-02-28T03:46:19;2.53;;;2.33;;
8636;SDS011;4356;49.068;8.658;2023-02-28T03:48:51;2.30;;;2.20;;
8636;SDS011;4356;49.068;8.658;2023-02-28T03:51:25;2.50;;;2.37;;
8636;SDS011;4356;49.068;8.658;2023-02-28T03:53:56;2.73;;;2.63;;
8636;SDS011;4356;49.068;8.658;2023-02-28T03:56:32;2.70;;;2.50;;
8636;SDS011;4356;49.068;8.658;2023-02-28T04:01:38;2.53;;;2.43;;
8636;SDS011;4356;49.068;8.658;2023-02-28T04:04:08;2.47;;;2.37;;
8636;SDS011;4356;49.068;8.658;2023-02-28T04:06:35;2.70;;;2.60;;
8636;SDS011;4356;49.068;8.658;2023-02-28T04:09:01;2.87;;;2.67;;
8636;SDS011;4356;49.068;8.658;2023-02-28T04:11:38;3.17;;;2.97;;
8636;SDS011;4356;49.068;8.658;2023-02-28T04:14:07;2.40;;;2.30;;
8636;SDS011;4356;49.068;8.658;2023-02-28T04:16:34;2.40;;;2.30;;
8636;SDS011;4356;49.068;8.658;2023-02-28T04:19:02;2.47;;;2.17;;
8636;SDS011;4356;49.068;8.658;2023-02-28T04:21:30;2.87;;;2.77;;
8636;SDS011;4356;49.068;8.658;2023-02-28T04:24:01;2.67;;;2.57;;
8636;SDS011;4356;49.068;8.658;2023-02-28T04:26:31;2.77;;;2.63;;
8636;SDS011;4356;49.068;8.658;2023-02-28T04:29:02;2.90;;;2.70;;
8636;SDS011;4356;49.068;8.658;2023-02-28T04:31:29;3.33;;;3.10;;
8636;SDS011;4356;49.068;8.658;2023-02-28T04:33:55;3.07;;;2.87;;
8636;SDS011;4356;49.068;8.658;2023-02-28T04:36:21;2.77;;;2.67;;
8636;SDS011;4356;49.068;8.658;2023-02-28T04:38:48;2.90;;;2.70;;
8636;SDS011;4356;49.068;8.658;2023-02-28T04:41:14;2.70;;;2.60;;
8636;SDS011;4356;49.068;8.658;2023-02-28T04:43:43;2.97;;;2.83;;
8636;SDS011;4356;49.068;8.658;2023-02-28T04:46:08;3.27;;;2.97;;
8636;SDS011;4356;49.068;8.658;2023-02-28T04:48:36;3.13;;;2.93;;
8636;SDS011;4356;49.068;8.658;2023-02-28T04:51:03;3.13;;;2.87;;
8636;SDS011;4356;49.068;8.658;2023-02-28T04:53:30;3.07;;;2.77;;
8636;SDS011;4356;49.068;8.658;2023-02-28T04:55:56;3.40;;;3.10;;
8636;SDS011;4356;49.068;8.658;2023-02-28T04:58:22;3.03;;;2.83;;
8636;SDS011;4356;49.068;8.658;2023-02-28T05:00:51;3.00;;;2.80;;
8636;SDS011;4356;49.068;8.658;2023-02-28T05:03:18;2.73;;;2.63;;
8636;SDS011;4356;49.068;8.658;2023-02-28T05:05:45;2.77;;;2.57;;
8636;SDS011;4356;49.068;8.658;2023-02-28T05:08:11;3.07;;;2.93;;
8636;SDS011;4356;49.068;8.658;2023-02-28T05:10:37;2.80;;;2.60;;
8636;SDS011;4356;49.068;8.658;2023-02-28T05:13:02;2.80;;;2.60;;
8636;SDS011;4356;49.068;8.658;2023-02-28T05:15:28;2.90;;;2.73;;
8636;SDS011;4356;49.068;8.658;2023-02-28T05:17:53;2.90;;;2.70;;
8636;SDS011;4356;49.068;8.658;2023-02-28T05:20:22;3.10;;;3.00;;
8636;SDS011;4356;49.068;8.658;2023-02-28T05:22:47;3.23;;;3.03;;
8636;SDS011;4356;49.068;8.658;2023-02-28T05:25:18;2.93;;;2.73;;
8636;SDS011;4356;49.068;8.658;2023-02-28T05:27:47;4.33;;;3.30;;
8636;SDS011;4356;49.068;8.658;2023-02-28T05:30:12;2.73;;;2.63;;
8636;SDS011;4356;49.068;8.658;2023-02-28T05:32:39;3.07;;;2.90;;
8636;SDS011;4356;49.068;8.658;2023-02-28T05:35:08;3.30;;;3.10;;
8636;SDS011;4356;49.068;8.658;2023-02-28T05:37:37;3.53;;;3.23;;
8636;SDS011;4356;49.068;8.658;2023-02-28T05:40:03;3.10;;;2.90;;
8636;SDS011;4356;49.068;8.658;2023-02-28T05:42:36;3.27;;;3.07;;
8636;SDS011;4356;49.068;8.658;2023-02-28T05:45:02;3.37;;;3.17;;
8636;SDS011;4356;49.068;8.658;2023-02-28T05:47:32;2.80;;;2.67;;
8636;SDS011;4356;49.068;8.658;2023-02-28T05:49:57;3.20;;;3.10;;
8636;SDS011;4356;49.068;8.658;2023-02-28T05:52:23;2.80;;;2.60;;
8636;SDS011;4356;49.068;8.658;2023-02-28T05:54:48;3.03;;;2.83;;
8636;SDS011;4356;49.068;8.658;2023-02-28T05:57:14;2.90;;;2.67;;
8636;SDS011;4356;49.068;8.658;2023-02-28T05:59:40;3.10;;;2.90;;
8636;SDS011;4356;49.068;8.658;2023-02-28T06:02:08;2.80;;;2.60;;
8636;SDS011;4356;49.068;8.658;2023-02-28T06:04:37;2.70;;;2.60;;
8636;SDS011;4356;49.068;8.658;2023-02-28T06:07:02;4.23;;;3.10;;
8636;SDS011;4356;49.068;8.658;2023-02-28T06:09:28;3.80;;;3.50;;
8636;SDS011;4356;49.068;8.658;2023-02-28T06:11:54;3.07;;;2.87;;
8636;SDS011;4356;49.068;8.658;2023-02-28T06:14:20;3.57;;;3.00;;
8636;SDS011;4356;49.068;8.658;2023-02-28T06:16:46;3.40;;;3.20;;
8636;SDS011;4356;49.068;8.658;2023-02-28T06:19:12;3.80;;;3.50;;
8636;SDS011;4356;49.068;8.658;2023-02-28T06:21:38;3.43;;;3.20;;
8636;SDS011;4356;49.068;8.658;2023-02-28T06:24:04;2.90;;;2.80;;
8636;SDS011;4356;49.068;8.658;2023-02-28T06:26:30;3.87;;;3.33;;
8636;SDS011;4356;49.068;8.658;2023-02-28T06:28:59;3.50;;;3.30;;
8636;SDS011;4356;49.068;8.658;2023-02-28T06:31:26;2.80;;;2.70;;
8636;SDS011;4356;49.068;8.658;2023-02-28T06:33:51;3.50;;;3.30;;
8636;SDS011;4356;49.068;8.658;2023-02-28T06:36:17;3.23;;;3.03;;
8636;SDS011;4356;49.068;8.658;2023-02-28T06:38:43;2.93;;;2.83;;
8636;SDS011;4356;49.068;8.658;2023-02-28T06:41:09;5.27;;;4.80;;
8636;SDS011;4356;49.068;8.658;2023-02-28T06:43:36;3.43;;;3.23;;
8636;SDS011;4356;49.068;8.658;2023-02-28T06:46:06;3.73;;;3.40;;
8636;SDS011;4356;49.068;8.658;2023-02-28T06:48:33;3.10;;;2.93;;
8636;SDS011;4356;49.068;8.658;2023-02-28T06:51:04;3.30;;;3.10;;
8636;SDS011;4356;49.068;8.658;2023-02-28T06:53:42;3.47;;;3.27;;
8636;SDS011;4356;49.068;8.658;2023-02-28T06:56:10;3.33;;;3.03;;
8636;SDS011;4356;49.068;8.658;2023-02-28T06:58:41;3.07;;;2.87;;
8636;SDS011;4356;49.068;8.658;2023-02-28T07:01:13;3.30;;;3.10;;
8636;SDS011;4356;49.068;8.658;2023-02-28T07:03:39;3.00;;;2.80;;
8636;SDS011;4356;49.068;8.658;2023-02-28T07:06:05;3.60;;;3.30;;
8636;SDS011;4356;49.068;8.658;2023-02-28T07:08:34;3.73;;;3.43;;
8636;SDS011;4356;49.068;8.658;2023-02-28T07:11:01;3.30;;;3.10;;
8636;SDS011;4356;49.068;8.658;2023-02-28T07:13:27;4.40;;;4.10;;
8636;SDS011;4356;49.068;8.658;2023-02-28T07:15:57;4.07;;;3.20;;
8636;SDS011;4356;49.068;8.658;2023-02-28T07:18:26;3.43;;;3.23;;
8636;SDS011;4356;49.068;8.658;2023-02-28T07:20:51;3.27;;;3.07;;
8636;SDS011;4356;49.068;8.658;2023-02-28T07:23:17;3.50;;;3.30;;
8636;SDS011;4356;49.068;8.658;2023-02-28T07:25:43;3.70;;;3.40;;
8636;SDS011;4356;49.068;8.658;2023-02-28T07:28:10;3.93;;;3.73;;
8636;SDS011;4356;49.068;8.658;2023-02-28T07:30:36;15.83;;;12.73;;
8636;SDS011;4356;49.068;8.658;2023-02-28T07:33:02;3.73;;;3.43;;
8636;SDS011;4356;49.068;8.658;2023-02-28T07:35:28;3.60;;;3.40;;
8636;SDS011;4356;49.068;8.658;2023-02-28T07:37:54;3.73;;;3.47;;
8636;SDS011;4356;49.068;8.658;2023-02-28T07:40:21;4.30;;;3.50;;
8636;SDS011;4356;49.068;8.658;2023-02-28T07:42:47;4.33;;;3.70;;
8636;SDS011;4356;49.068;8.658;2023-02-28T07:45:13;4.03;;;3.73;;
8636;SDS011;4356;49.068;8.658;2023-02-28T07:47:38;3.40;;;3.20;;
8636;SDS011;4356;49.068;8.658;2023-02-28T07:50:05;3.40;;;3.13;;
8636;SDS011;4356;49.068;8.658;2023-02-28T07:52:35;3.70;;;3.40;;
8636;SDS011;4356;49.068;8.658;2023-02-28T07:55:02;3.73;;;3.53;;
8636;SDS011;4356;49.068;8.658;2023-02-28T07:57:27;5.87;;;3.70;;
8636;SDS011;4356;49.068;8.658;2023-02-28T07:59:53;3.43;;;3.23;;
8636;SDS011;4356;49.068;8.658;2023-02-28T08:02:18;4.30;;;3.90;;
8636;SDS011;4356;49.068;8.658;2023-02-28T08:04:44;4.00;;;3.80;;
8636;SDS011;4356;49.068;8.658;2023-02-28T08:07:13;4.03;;;3.83;;
8636;SDS011;4356;49.068;8.658;2023-02-28T08:09:39;3.70;;;3.40;;
8636;SDS011;4356;49.068;8.658;2023-02-28T08:12:05;4.30;;;4.00;;
8636;SDS011;4356;49.068;8.658;2023-02-28T08:14:32;4.23;;;3.83;;
8636;SDS011;4356;49.068;8.658;2023-02-28T08:16:58;4.30;;;4.00;;
8636;SDS011;4356;49.068;8.658;2023-02-28T08:19:24;4.07;;;3.77;;
8636;SDS011;4356;49.068;8.658;2023-02-28T08:21:52;9.53;;;4.57;;
8636;SDS011;4356;49.068;8.658;2023-02-28T08:24:17;5.17;;;4.67;;
8636;SDS011;4356;49.068;8.658;2023-02-28T08:26:46;5.60;;;4.50;;
8636;SDS011;4356;49.068;8.658;2023-02-28T08:29:17;5.13;;;4.63;;
8636;SDS011;4356;49.068;8.658;2023-02-28T08:32:00;4.40;;;4.10;;
8636;SDS011;4356;49.068;8.658;2023-02-28T08:34:28;4.30;;;4.00;;
8636;SDS011;4356;49.068;8.658;2023-02-28T08:37:04;5.97;;;4.87;;
8636;SDS011;4356;49.068;8.658;2023-02-28T08:39:40;4.23;;;3.93;;
8636;SDS011;4356;49.068;8.658;2023-02-28T08:42:06;4.27;;;3.80;;
8636;SDS011;4356;49.068;8.658;2023-02-28T08:44:31;5.23;;;4.83;;
8636;SDS011;4356;49.068;8.658;2023-02-28T08:46:57;4.23;;;3.93;;
8636;SDS011;4356;49.068;8.658;2023-02-28T08:49:23;4.50;;;4.20;;
8636;SDS011;4356;49.068;8.658;2023-02-28T08:51:51;4.90;;;4.27;;
8636;SDS011;4356;49.068;8.658;2023-02-28T08:54:17;4.17;;;3.97;;
8636;SDS011;4356;49.068;8.658;2023-02-28T08:56:45;5.00;;;4.70;;
8636;SDS011;4356;49.068;8.658;2023-02-28T08:59:16;4.70;;;4.20;;
8636;SDS011;4356;49.068;8.658;2023-02-28T09:01:42;4.40;;;4.07;;
8636;SDS011;4356;49.068;8.658;2023-02-28T09:04:10;4.17;;;3.97;;
8636;SDS011;4356;49.068;8.658;2023-02-28T09:06:36;5.13;;;4.43;;
8636;SDS011;4356;49.068;8.658;2023-02-28T09:09:02;5.13;;;4.73;;
8636;SDS011;4356;49.068;8.658;2023-02-28T09:11:31;4.73;;;4.43;;
8636;SDS011;4356;49.068;8.658;2023-02-28T09:13:57;4.93;;;4.40;;
8636;SDS011;4356;49.068;8.658;2023-02-28T09:16:24;4.73;;;4.40;;
8636;SDS011;4356;49.068;8.658;2023-02-28T09:18:49;4.72;;;4.32;;
8636;SDS011;4356;49.068;8.658;2023-02-28T09:21:16;6.47;;;5.87;;
8636;SDS011;4356;49.068;8.658;2023-02-28T09:23:43;4.60;;;4.30;;
8636;SDS011;4356;49.068;8.658;2023-02-28T09:26:20;4.67;;;4.37;;
8636;SDS011;4356;49.068;8.658;2023-02-28T09:28:53;5.03;;;4.63;;
8636;SDS011;4356;49.068;8.658;2023-02-28T09:31:23;5.20;;;4.80;;
8636;SDS011;4356;49.068;8.658;2023-02-28T09:33:51;5.33;;;4.83;;
8636;SDS011;4356;49.068;8.658;2023-02-28T09:36:19;5.23;;;4.80;;
8636;SDS011;4356;49.068;8.658;2023-02-28T09:38:45;4.90;;;4.60;;
8636;SDS011;4356;49.068;8.658;2023-02-28T09:41:15;5.20;;;4.80;;
8636;SDS011;4356;49.068;8.658;2023-02-28T09:43:52;5.03;;;4.63;;
8636;SDS011;4356;49.068;8.658;2023-02-28T09:46:32;4.47;;;4.17;;
8636;SDS011;4356;49.068;8.658;2023-02-28T09:49:16;4.90;;;4.60;;
8636;SDS011;4356;49.068;8.658;2023-02-28T09:54:22;4.53;;;4.23;;
8636;SDS011;4356;49.068;8.658;2023-02-28T09:56:50;4.90;;;4.50;;
8636;SDS011;4356;49.068;8.658;2023-02-28T09:59:37;5.10;;;4.80;;
8636;SDS011;4356;49.068;8.658;2023-02-28T10:04:57;5.10;;;4.60;;
8636;SDS011;4356;49.068;8.658;2023-02-28T10:16:12;4.40;;;4.17;;
8636;SDS011;4356;49.068;8.658;2023-02-28T10:19:25;4.90;;;4.50;;
8636;SDS011;4356;49.068;8.658;2023-02-28T10:24:52;5.00;;;4.60;;
8636;SDS011;4356;49.068;8.658;2023-02-28T10:27:22;4.90;;;4.50;;
8636;SDS011;4356;49.068;8.658;2023-02-28T10:29:58;5.17;;;4.87;;
8636;SDS011;4356;49.068;8.658;2023-02-28T10:32:32;5.10;;;4.70;;
8636;SDS011;4356;49.068;8.658;2023-02-28T10:35:15;5.68;;;5.28;;
8636;SDS011;4356;49.068;8.658;2023-02-28T10:37:44;5.40;;;5.10;;
8636;SDS011;4356;49.068;8.658;2023-02-28T10:45:30;5.67;;;5.17;;
8636;SDS011;4356;49.068;8.658;2023-02-28T10:48:04;5.47;;;5.00;;
8636;SDS011;4356;49.068;8.658;2023-02-28T10:58:48;5.73;;;5.20;;
8636;SDS011;4356;49.068;8.658;2023-02-28T11:01:39;5.20;;;4.80;;
8636;SDS011;4356;49.068;8.658;2023-02-28T11:07:18;5.37;;;4.87;;
8636;SDS011;4356;49.068;8.658;2023-02-28T11:09:49;5.20;;;4.70;;
8636;SDS011;4356;49.068;8.658;2023-02-28T11:12:26;5.47;;;4.97;;
8636;SDS011;4356;49.068;8.658;2023-02-28T11:14:58;5.17;;;4.67;;
8636;SDS011;4356;49.068;8.658;2023-02-28T11:17:28;5.43;;;5.03;;
8636;SDS011;4356;49.068;8.658;2023-02-28T11:19:58;5.50;;;5.10;;
8636;SDS011;4356;49.068;8.658;2023-02-28T11:22:29;5.50;;;5.10;;
8636;SDS011;4356;49.068;8.658;2023-02-28T11:25:02;4.90;;;4.60;;
8636;SDS011;4356;49.068;8.658;2023-02-28T11:30:22;5.17;;;4.70;;
8636;SDS011;4356;49.068;8.658;2023-02-28T11:32:51;5.50;;;5.10;;
8636;SDS011;4356;49.068;8.658;2023-02-28T11:35:18;5.40;;;5.00;;
8636;SDS011;4356;49.068;8.658;2023-02-28T11:37:50;4.97;;;4.67;;
8636;SDS011;4356;49.068;8.658;2023-02-28T11:40:16;4.90;;;4.60;;
8636;SDS011;4356;49.068;8.658;2023-02-28T11:48:21;5.40;;;5.00;;
8636;SDS011;4356;49.068;8.658;2023-02-28T11:53:50;5.70;;;4.80;;
8636;SDS011;4356;49.068;8.658;2023-02-28T11:57:13;5.80;;;5.00;;
8636;SDS011;4356;49.068;8.658;2023-02-28T11:59:52;5.30;;;4.97;;
8636;SDS011;4356;49.068;8.658;2023-02-28T12:02:33;5.53;;;5.03;;
8636;SDS011;4356;49.068;8.658;2023-02-28T12:08:00;5.53;;;5.13;;
8636;SDS011;4356;49.068;8.658;2023-02-28T12:10:30;5.50;;;5.10;;
8636;SDS011;4356;49.068;8.658;2023-02-28T12:16:07;5.20;;;4.80;;
8636;SDS011;4356;49.068;8.658;2023-02-28T12:18:52;5.77;;;5.37;;
8636;SDS011;4356;49.068;8.658;2023-02-28T12:26:50;5.57;;;5.13;;
8636;SDS011;4356;49.068;8.658;2023-02-28T12:29:23;5.30;;;5.00;;
8636;SDS011;4356;49.068;8.658;2023-02-28T12:32:19;5.30;;;4.90;;
8636;SDS011;4356;49.068;8.658;2023-02-28T12:37:29;7.53;;;5.47;;
8636;SDS011;4356;49.068;8.658;2023-02-28T12:40:09;5.40;;;5.00;;
8636;SDS011;4356;49.068;8.658;2023-02-28T12:42:56;5.40;;;5.00;;
8636;SDS011;4356;49.068;8.658;2023-02-28T12:45:27;5.50;;;5.10;;
8636;SDS011;4356;49.068;8.658;2023-02-28T12:48:08;5.27;;;4.93;;
8636;SDS011;4356;49.068;8.658;2023-02-28T12:50:38;5.57;;;5.20;;
8636;SDS011;4356;49.068;8.658;2023-02-28T12:53:09;5.63;;;5.20;;
8636;SDS011;4356;49.068;8.658;2023-02-28T12:56:13;5.20;;;4.90;;
8636;SDS011;4356;49.068;8.658;2023-02-28T12:59:31;5.73;;;5.23;;
8636;SDS011;4356;49.068;8.658;2023-02-28T13:10:11;5.93;;;5.43;;
8636;SDS011;4356;49.068;8.658;2023-02-28T13:12:46;10.17;;;8.03;;
8636;SDS011;4356;49.068;8.658;2023-02-28T13:17:54;5.47;;;4.97;;
8636;SDS011;4356;49.068;8.658;2023-02-28T13:20:29;6.37;;;5.60;;
8636;SDS011;4356;49.068;8.658;2023-02-28T13:23:02;6.20;;;5.70;;
8636;SDS011;4356;49.068;8.658;2023-02-28T13:27:59;5.67;;;5.33;;
8636;SDS011;4356;49.068;8.658;2023-02-28T13:38:57;6.30;;;5.90;;
8636;SDS011;4356;49.068;8.658;2023-02-28T13:44:05;5.97;;;5.57;;
8636;SDS011;4356;49.068;8.658;2023-02-28T13:57:15;6.30;;;5.70;;
8636;SDS011;4356;49.068;8.658;2023-02-28T14:11:33;6.10;;;5.70;;
8636;SDS011;4356;49.068;8.658;2023-02-28T14:14:01;7.03;;;6.37;;
8636;SDS011;4356;49.068;8.658;2023-02-28T14:16:41;5.90;;;5.40;;
8636;SDS011;4356;49.068;8.658;2023-02-28T14:19:12;6.60;;;6.03;;
8636;SDS011;4356;49.068;8.658;2023-02-28T14:24:51;6.93;;;5.97;;
8636;SDS011;4356;49.068;8.658;2023-02-28T14:33:27;6.10;;;5.70;;
8636;SDS011;4356;49.068;8.658;2023-02-28T14:36:07;6.20;;;5.60;;
8636;SDS011;4356;49.068;8.658;2023-02-28T14:38:50;5.70;;;5.30;;
8636;SDS011;4356;49.068;8.658;2023-02-28T14:41:40;6.50;;;6.00;;
8636;SDS011;4356;49.068;8.658;2023-02-28T14:44:20;6.50;;;6.00;;
8636;SDS011;4356;49.068;8.658;2023-02-28T14:46:55;6.13;;;5.67;;
8636;SDS011;4356;49.068;8.658;2023-02-28T14:49:27;6.77;;;6.27;;
8636;SDS011;4356;49.068;8.658;2023-02-28T14:54:28;9.37;;;6.23;;
8636;SDS011;4356;49.068;8.658;2023-02-28T14:56:56;6.50;;;6.00;;
8636;SDS011;4356;49.068;8.658;2023-02-28T14:59:23;6.63;;;6.13;;
8636;SDS011;4356;49.068;8.658;2023-02-28T15:07:46;6.30;;;5.70;;
8636;SDS011;4356;49.068;8.658;2023-02-28T15:12:51;6.27;;;5.80;;
8636;SDS011;4356;49.068;8.658;2023-02-28T15:17:54;6.10;;;5.70;;
8636;SDS011;4356;49.068;8.658;2023-02-28T15:20:22;6.23;;;5.63;;
8636;SDS011;4356;49.068;8.658;2023-02-28T15:22:51;10.33;;;6.53;;
8636;SDS011;4356;49.068;8.658;2023-02-28T15:25:21;6.37;;;5.77;;
8636;SDS011;4356;49.068;8.658;2023-02-28T15:27:49;6.40;;;5.70;;
8636;SDS011;4356;49.068;8.658;2023-02-28T15:30:31;6.80;;;6.27;;
8636;SDS011;4356;49.068;8.658;2023-02-28T15:33:05;6.57;;;6.07;;
8636;SDS011;4356;49.068;8.658;2023-02-28T15:35:43;6.00;;;5.60;;
8636;SDS011;4356;49.068;8.658;2023-02-28T15:40:40;6.47;;;5.97;;
8636;SDS011;4356;49.068;8.658;2023-02-28T15:43:15;6.00;;;5.60;;
8636;SDS011;4356;49.068;8.658;2023-02-28T15:45:49;6.80;;;6.30;;
8636;SDS011;4356;49.068;8.658;2023-02-28T15:48:20;6.13;;;5.63;;
8636;SDS011;4356;49.068;8.658;2023-02-28T15:51:36;7.27;;;6.00;;
8636;SDS011;4356;49.068;8.658;2023-02-28T15:53:55;6.40;;;5.77;;
8636;SDS011;4356;49.068;8.658;2023-02-28T15:56:27;7.20;;;6.60;;
8636;SDS011;4356;49.068;8.658;2023-02-28T15:58:59;6.67;;;6.17;;
8636;SDS011;4356;49.068;8.658;2023-02-28T16:01:28;6.47;;;5.97;;
8636;SDS011;4356;49.068;8.658;2023-02-28T16:03:59;6.97;;;6.23;;
8636;SDS011;4356;49.068;8.658;2023-02-28T16:06:35;6.20;;;5.80;;
8636;SDS011;4356;49.068;8.658;2023-02-28T16:09:03;5.93;;;5.53;;
8636;SDS011;4356;49.068;8.658;2023-02-28T16:11:33;6.50;;;6.00;;
8636;SDS011;4356;49.068;8.658;2023-02-28T16:14:02;6.83;;;6.33;;
8636;SDS011;4356;49.068;8.658;2023-02-28T16:16:28;6.90;;;6.40;;
8636;SDS011;4356;49.068;8.658;2023-02-28T16:18:55;6.13;;;5.63;;
8636;SDS011;4356;49.068;8.658;2023-02-28T16:21:20;6.60;;;6.10;;
8636;SDS011;4356;49.068;8.658;2023-02-28T16:23:46;6.73;;;6.13;;
8636;SDS011;4356;49.068;8.658;2023-02-28T16:26:18;7.00;;;6.40;;
8636;SDS011;4356;49.068;8.658;2023-02-28T16:28:46;6.43;;;6.03;;
8636;SDS011;4356;49.068;8.658;2023-02-28T16:31:12;5.80;;;5.40;;
8636;SDS011;4356;49.068;8.658;2023-02-28T16:33:42;6.20;;;5.80;;
8636;SDS011;4356;49.068;8.658;2023-02-28T16:36:14;6.40;;;5.90;;
8636;SDS011;4356;49.068;8.658;2023-02-28T16:38:43;6.67;;;5.80;;
8636;SDS011;4356;49.068;8.658;2023-02-28T16:41:12;6.50;;;6.10;;
8636;SDS011;4356;49.068;8.658;2023-02-28T16:43:47;8.63;;;6.17;;
8636;SDS011;4356;49.068;8.658;2023-02-28T16:46:15;6.10;;;5.70;;
8636;SDS011;4356;49.068;8.658;2023-02-28T16:48:41;6.37;;;5.97;;
8636;SDS011;4356;49.068;8.658;2023-02-28T16:51:14;6.07;;;5.63;;
8636;SDS011;4356;49.068;8.658;2023-02-28T16:53:41;6.37;;;5.77;;
8636;SDS011;4356;49.068;8.658;2023-02-28T16:56:12;6.73;;;6.23;;
8636;SDS011;4356;49.068;8.658;2023-02-28T16:58:42;6.77;;;6.17;;
8636;SDS011;4356;49.068;8.658;2023-02-28T17:01:08;6.10;;;5.70;;
8636;SDS011;4356;49.068;8.658;2023-02-28T17:03:33;5.93;;;5.43;;
8636;SDS011;4356;49.068;8.658;2023-02-28T17:06:01;6.73;;;6.27;;
8636;SDS011;4356;49.068;8.658;2023-02-28T17:08:27;6.60;;;6.10;;
8636;SDS011;4356;49.068;8.658;2023-02-28T17:10:54;6.90;;;6.27;;
8636;SDS011;4356;49.068;8.658;2023-02-28T17:13:22;6.67;;;6.10;;
8636;SDS011;4356;49.068;8.658;2023-02-28T17:15:48;6.53;;;6.03;;
8636;SDS011;4356;49.068;8.658;2023-02-28T17:18:15;6.23;;;5.73;;
8636;SDS011;4356;49.068;8.658;2023-02-28T17:20:44;7.07;;;6.37;;
8636;SDS011;4356;49.068;8.658;2023-02-28T17:23:10;6.13;;;5.73;;
8636;SDS011;4356;49.068;8.658;2023-02-28T17:25:36;6.50;;;6.00;;
8636;SDS011;4356;49.068;8.658;2023-02-28T17:28:02;8.67;;;7.87;;
8636;SDS011;4356;49.068;8.658;2023-02-28T17:30:28;14.10;;;12.67;;
8636;SDS011;4356;49.068;8.658;2023-02-28T17:32:54;71.73;;;48.87;;
8636;SDS011;4356;49.068;8.658;2023-02-28T17:35:21;13.20;;;11.80;;
8636;SDS011;4356;49.068;8.658;2023-02-28T17:37:47;12.43;;;11.23;;
8636;SDS011;4356;49.068;8.658;2023-02-28T17:40:17;7.40;;;6.80;;
8636;SDS011;4356;49.068;8.658;2023-02-28T17:42:44;8.73;;;7.93;;
8636;SDS011;4356;49.068;8.658;2023-02-28T17:45:11;22.37;;;19.43;;
8636;SDS011;4356;49.068;8.658;2023-02-28T17:47:37;22.50;;;19.50;;
8636;SDS011;4356;49.068;8.658;2023-02-28T17:50:04;33.27;;;25.43;;
8636;SDS011;4356;49.068;8.658;2023-02-28T17:52:30;32.40;;;24.67;;
8636;SDS011;4356;49.068;8.658;2023-02-28T17:54:56;30.63;;;24.30;;
8636;SDS011;4356;49.068;8.658;2023-02-28T17:57:24;24.53;;;19.97;;
8636;SDS011;4356;49.068;8.658;2023-02-28T17:59:49;27.20;;;22.73;;
8636;SDS011;4356;49.068;8.658;2023-02-28T18:02:15;24.57;;;20.60;;
8636;SDS011;4356;49.068;8.658;2023-02-28T18:04:41;37.33;;;28.80;;
8636;SDS011;4356;49.068;8.658;2023-02-28T18:07:08;37.83;;;29.83;;
8636;SDS011;4356;49.068;8.658;2023-02-28T18:09:36;14.97;;;12.63;;
8636;SDS011;4356;49.068;8.658;2023-02-28T18:12:01;9.43;;;8.53;;
8636;SDS011;4356;49.068;8.658;2023-02-28T18:14:27;7.50;;;6.80;;
8636;SDS011;4356;49.068;8.658;2023-02-28T18:16:53;8.60;;;7.90;;
8636;SDS011;4356;49.068;8.658;2023-02-28T18:19:20;9.33;;;8.10;;
8636;SDS011;4356;49.068;8.658;2023-02-28T18:21:46;13.03;;;10.90;;
8636;SDS011;4356;49.068;8.658;2023-02-28T18:24:14;7.63;;;6.93;;